createdAt,value
2022-08-05T00:00:08.909Z,27.85705566
2022-08-05T00:01:20.611Z,27.83691406
2022-08-05T00:02:11.420Z,27.85705566
2022-08-05T00:03:15.706Z,27.85705566
2022-08-05T00:04:11.668Z,27.87719727
2022-08-05T00:06:01.798Z,27.89733887
2022-08-05T00:06:29.133Z,27.89733887
2022-08-05T00:07:26.764Z,27.90740967
2022-08-05T00:08:19.779Z,27.94769287
2022-08-05T00:09:19.593Z,27.90740967
2022-08-05T00:10:16.629Z,27.92755127
2022-08-05T00:11:20.526Z,27.94769287
2022-08-05T00:12:17.962Z,27.94769287
2022-08-05T00:13:19.816Z,27.92755127
2022-08-05T00:14:19.310Z,27.92755127
2022-08-05T00:15:55.851Z,27.92755127
2022-08-05T00:16:36.089Z,27.92755127
2022-08-05T00:17:22.082Z,27.92755127
2022-08-05T00:18:22.912Z,27.90740967
2022-08-05T00:19:24.920Z,27.90740967
2022-08-05T00:20:28.765Z,27.90740967
2022-08-05T00:21:24.757Z,27.92755127
2022-08-05T00:22:25.441Z,27.92755127
2022-08-05T00:23:44.199Z,27.92755127
2022-08-05T00:24:30.729Z,27.94769287
2022-08-05T00:25:27.488Z,27.94769287
2022-08-05T00:26:29.022Z,27.94769287
2022-08-05T00:27:35.780Z,27.94769287
2022-08-05T00:28:30.306Z,27.94769287
2022-08-05T00:29:37.610Z,27.90740967
2022-08-05T00:31:04.446Z,27.90740967
2022-08-05T00:32:10.642Z,27.90740967
2022-08-05T00:33:05.221Z,27.87719727
2022-08-05T00:34:55.195Z,27.86712646
2022-08-05T00:35:07.714Z,27.85705566
2022-08-05T00:36:16.237Z,27.85705566
2022-08-05T00:37:13.821Z,27.85705566
2022-08-05T00:38:09.596Z,27.85705566
2022-08-05T00:39:13.956Z,27.85705566
2022-08-05T00:40:10.915Z,27.86712646
2022-08-05T00:41:11.990Z,27.86712646
2022-08-05T00:42:12.333Z,27.87719727
2022-08-05T00:43:15.389Z,27.89733887
2022-08-05T00:44:13.658Z,27.89733887
2022-08-05T00:45:14.342Z,27.89733887
2022-08-05T00:46:15.590Z,27.92755127
2022-08-05T00:47:16.473Z,27.92755127
2022-08-05T00:48:17.066Z,27.95776367
2022-08-05T00:49:17.719Z,27.95776367
2022-08-05T00:50:20.795Z,27.95776367
2022-08-05T00:51:50.279Z,27.95776367
2022-08-05T00:52:28.310Z,27.97790527
2022-08-05T00:54:00.819Z,27.97790527
2022-08-05T00:54:21.705Z,27.97790527
2022-08-05T00:55:22.993Z,27.97790527
2022-08-05T00:56:24.588Z,27.97790527
2022-08-05T00:57:31.924Z,28.00811768
2022-08-05T00:58:27.660Z,27.98797607
2022-08-05T00:59:26.696Z,27.98797607
2022-08-05T01:00:27.585Z,27.97790527
2022-08-05T01:01:42.586Z,27.98797607
2022-08-05T01:02:29.092Z,27.98797607
2022-08-05T01:03:33.497Z,27.98797607
2022-08-05T01:04:31.073Z,27.95776367
2022-08-05T01:06:05.390Z,27.92755127
2022-08-05T01:07:05.230Z,27.94769287
2022-08-05T01:08:40.576Z,27.92755127
2022-08-05T01:09:05.606Z,27.90740967
2022-08-05T01:10:09.025Z,27.89733887
2022-08-05T01:11:07.798Z,27.90740967
2022-08-05T01:12:18.035Z,27.89733887
2022-08-05T01:13:13.399Z,27.89733887
2022-08-05T01:14:10.228Z,27.89733887
2022-08-05T01:15:35.667Z,27.90740967
2022-08-05T01:16:12.629Z,27.90740967
2022-08-05T01:17:13.381Z,27.90740967
2022-08-05T01:18:14.228Z,27.90740967
2022-08-05T01:19:14.926Z,27.89733887
2022-08-05T01:20:16.597Z,27.90740967
2022-08-05T01:21:22.742Z,27.92755127
2022-08-05T01:22:23.866Z,27.92755127
2022-08-05T01:23:22.766Z,27.90740967
2022-08-05T01:24:19.621Z,27.90740967
2022-08-05T01:25:20.319Z,27.89733887
2022-08-05T01:26:21.595Z,27.87719727
2022-08-05T01:27:22.398Z,27.86712646
2022-08-05T01:28:23.254Z,27.86712646
2022-08-05T01:29:24.021Z,27.83691406
2022-08-05T01:30:34.901Z,27.83691406
2022-08-05T01:31:25.412Z,27.80670166
2022-08-05T01:32:27.716Z,27.79663086
2022-08-05T01:33:27.009Z,27.77648926
2022-08-05T01:34:27.723Z,27.76641846
2022-08-05T01:35:50.780Z,27.76641846
2022-08-05T01:36:29.651Z,27.73620605
2022-08-05T01:37:31.298Z,27.68585205
2022-08-05T01:39:03.363Z,27.65563965
2022-08-05T01:40:03.698Z,27.65563965
2022-08-05T01:41:04.328Z,27.61535645
2022-08-05T01:42:05.052Z,27.61535645
2022-08-05T01:43:05.871Z,27.60528564
2022-08-05T01:44:06.685Z,27.57507324
2022-08-05T01:45:08.146Z,27.53479004
2022-08-05T01:46:16.246Z,27.52471924
2022-08-05T01:47:09.590Z,27.50457764
2022-08-05T01:48:10.558Z,27.48443604
2022-08-05T01:49:23.246Z,27.48443604
2022-08-05T01:50:15.291Z,27.49450684
2022-08-05T01:51:13.230Z,27.48443604
2022-08-05T01:52:17.794Z,27.43408203
2022-08-05T01:53:15.430Z,27.43408203
2022-08-05T01:54:18.072Z,27.43408203
2022-08-05T01:55:16.972Z,27.43408203
2022-08-05T01:58:11.437Z,27.43408203
2022-08-05T01:58:12.246Z,27.43408203
2022-08-05T01:58:40.555Z,27.42401123
2022-08-05T01:59:20.523Z,27.40386963
2022-08-05T02:00:30.644Z,27.40386963
2022-08-05T02:01:25.471Z,27.40386963
2022-08-05T02:02:26.193Z,27.40386963
2022-08-05T02:03:31.785Z,27.42401123
2022-08-05T02:04:25.512Z,27.40386963
2022-08-05T02:05:25.909Z,27.39379883
2022-08-05T02:06:38.176Z,27.39379883
2022-08-05T02:07:30.402Z,27.34344482
2022-08-05T02:08:30.918Z,27.34344482
2022-08-05T02:09:29.559Z,27.28302002
2022-08-05T02:11:01.144Z,27.25280762
2022-08-05T02:12:02.626Z,27.25280762
2022-08-05T02:13:04.768Z,27.23266602
2022-08-05T02:14:04.148Z,27.18231201
2022-08-05T02:15:04.956Z,27.18231201
2022-08-05T02:16:05.679Z,27.18231201
2022-08-05T02:17:07.342Z,27.18231201
2022-08-05T02:18:27.759Z,27.18231201
2022-08-05T02:19:08.528Z,27.16217041
2022-08-05T02:20:09.320Z,27.13195801
2022-08-05T02:21:14.652Z,27.15209961
2022-08-05T02:22:25.685Z,27.15209961
2022-08-05T02:23:13.502Z,27.12188721
2022-08-05T02:24:13.956Z,27.12188721
2022-08-05T02:25:14.795Z,27.13195801
2022-08-05T02:26:15.557Z,27.16217041
2022-08-05T02:27:16.991Z,27.13195801
2022-08-05T02:28:28.259Z,27.13195801
2022-08-05T02:29:21.596Z,27.12188721
2022-08-05T02:30:19.268Z,27.12188721
2022-08-05T02:31:21.059Z,27.081604
2022-08-05T02:32:24.175Z,27.03125
2022-08-05T02:33:24.345Z,27.0211792
2022-08-05T02:34:23.216Z,26.96075439
2022-08-05T02:35:28.034Z,26.94061279
2022-08-05T02:36:24.794Z,26.93054199
2022-08-05T02:37:26.490Z,26.93054199
2022-08-05T02:38:27.182Z,26.90032959
2022-08-05T02:39:27.961Z,26.93054199
2022-08-05T02:40:28.783Z,26.94061279
2022-08-05T02:41:43.424Z,26.91040039
2022-08-05T02:43:00.571Z,26.91040039
2022-08-05T02:44:06.299Z,26.90032959
2022-08-05T02:45:02.063Z,26.91040039
2022-08-05T02:46:02.844Z,26.91040039
2022-08-05T02:47:04.646Z,26.90032959
2022-08-05T02:48:11.753Z,26.88018799
2022-08-05T02:49:06.072Z,26.86004639
2022-08-05T02:50:06.784Z,26.82983398
2022-08-05T02:51:07.598Z,26.80969238
2022-08-05T02:52:08.652Z,26.80969238
2022-08-05T02:53:11.698Z,26.80969238
2022-08-05T02:54:09.706Z,26.82983398
2022-08-05T02:55:10.917Z,26.80969238
2022-08-05T02:56:15.972Z,26.78955078
2022-08-05T02:58:10.569Z,26.78955078
2022-08-05T02:58:14.161Z,26.78955078
2022-08-05T02:59:14.781Z,26.80969238
2022-08-05T03:00:15.468Z,26.80969238
2022-08-05T03:01:17.320Z,26.78955078
2022-08-05T03:02:17.986Z,26.80969238
2022-08-05T03:03:18.683Z,26.80969238
2022-08-05T03:04:19.360Z,26.80969238
2022-08-05T03:05:21.856Z,26.77947998
2022-08-05T03:06:53.706Z,26.75933838
2022-08-05T03:07:40.315Z,26.74926758
2022-08-05T03:08:27.193Z,26.72912598
2022-08-05T03:09:27.162Z,26.71905518
2022-08-05T03:10:25.159Z,26.67877197
2022-08-05T03:11:55.184Z,26.64855957
2022-08-05T03:12:26.656Z,26.65863037
2022-08-05T03:13:27.751Z,26.65863037
2022-08-05T03:14:28.098Z,26.63848877
2022-08-05T03:15:28.809Z,26.59820557
2022-08-05T03:17:02.124Z,26.59820557
2022-08-05T03:18:01.967Z,26.58813477
2022-08-05T03:19:04.274Z,26.59820557
2022-08-05T03:20:03.375Z,26.58813477
2022-08-05T03:21:04.024Z,26.56799316
2022-08-05T03:22:16.286Z,26.56799316
2022-08-05T03:23:05.622Z,26.56799316
2022-08-05T03:24:07.145Z,26.55792236
2022-08-05T03:25:33.788Z,26.53778076
2022-08-05T03:26:31.436Z,26.52770996
2022-08-05T03:27:10.220Z,26.52770996
2022-08-05T03:28:10.984Z,26.52770996
2022-08-05T03:29:13.100Z,26.52770996
2022-08-05T03:30:13.793Z,26.55792236
2022-08-05T03:31:25.879Z,26.55792236
2022-08-05T03:32:15.472Z,26.56799316
2022-08-05T03:33:16.083Z,26.53778076
2022-08-05T03:34:16.856Z,26.52770996
2022-08-05T03:35:17.544Z,26.50756836
2022-08-05T03:36:27.939Z,26.49749756
2022-08-05T03:37:20.947Z,26.48742676
2022-08-05T03:38:32.644Z,26.49749756
2022-08-05T03:39:27.264Z,26.49749756
2022-08-05T03:40:31.353Z,26.49749756
2022-08-05T03:41:23.747Z,26.48742676
2022-08-05T03:42:27.171Z,26.48742676
2022-08-05T03:44:08.790Z,26.48742676
2022-08-05T03:44:25.952Z,26.46728516
2022-08-05T03:45:26.683Z,26.46728516
2022-08-05T03:46:29.642Z,26.45721436
2022-08-05T03:47:35.186Z,26.40686035
2022-08-05T03:48:59.897Z,26.37664795
2022-08-05T03:50:00.652Z,26.35650635
2022-08-05T03:52:38.608Z,26.35650635
2022-08-05T03:52:48.404Z,26.37664795
2022-08-05T03:55:00.349Z,26.33636475
2022-08-05T03:55:50.114Z,26.35650635
2022-08-05T03:56:04.781Z,26.28601074
2022-08-05T03:56:17.997Z,26.27593994
2022-08-05T03:57:16.029Z,26.27593994
2022-08-05T03:58:08.181Z,26.28601074
2022-08-05T03:59:08.932Z,26.30615234
2022-08-05T04:00:09.691Z,26.31622314
2022-08-05T04:01:11.269Z,26.31622314
2022-08-05T04:02:17.314Z,26.30615234
2022-08-05T04:03:26.758Z,26.34643555
2022-08-05T04:04:13.307Z,26.34643555
2022-08-05T04:05:14.102Z,26.34643555
2022-08-05T04:06:15.637Z,26.26586914
2022-08-05T04:07:16.415Z,26.22558594
2022-08-05T04:08:30.396Z,26.15509033
2022-08-05T04:09:20.412Z,26.11480713
2022-08-05T04:10:19.408Z,26.09466553
2022-08-05T04:11:19.991Z,25.97381592
2022-08-05T04:12:24.409Z,25.89324951
2022-08-05T04:13:21.465Z,25.81268311
2022-08-05T04:14:30.147Z,25.64147949
2022-08-05T04:15:24.346Z,25.45013428
2022-08-05T04:16:24.362Z,25.34942627
2022-08-05T04:17:25.450Z,25.22857666
2022-08-05T04:18:25.826Z,25.10772705
2022-08-05T04:19:26.634Z,25.06744385
2022-08-05T04:20:27.449Z,25.03723145
2022-08-05T04:22:08.748Z,24.98687744
2022-08-05T04:22:59.281Z,24.98687744
2022-08-05T04:24:05.618Z,24.97680664
2022-08-05T04:25:00.805Z,25.04730225
2022-08-05T04:26:02.077Z,25.08758545
2022-08-05T04:27:02.822Z,25.13793945
2022-08-05T04:28:06.042Z,25.15808105
2022-08-05T04:29:07.180Z,25.06744385
2022-08-05T04:30:05.961Z,25.03723145
2022-08-05T04:31:10.432Z,24.89624023
2022-08-05T04:32:08.388Z,24.88616943
2022-08-05T04:33:09.022Z,24.88616943
2022-08-05T04:34:31.369Z,24.83581543
2022-08-05T04:35:17.768Z,24.81567383
2022-08-05T04:36:45.287Z,24.78546143
2022-08-05T04:37:12.929Z,24.82574463
2022-08-05T04:38:15.482Z,24.82574463
2022-08-05T04:39:15.230Z,24.88616943
2022-08-05T04:40:19.416Z,24.97680664
2022-08-05T04:41:16.770Z,25.01708984
2022-08-05T04:42:17.588Z,25.03723145
2022-08-05T04:43:18.280Z,25.07751465
2022-08-05T04:44:29.064Z,25.03723145
2022-08-05T04:45:22.889Z,25.00701904
2022-08-05T04:46:28.512Z,25.01708984
2022-08-05T04:47:21.714Z,24.97680664
2022-08-05T04:48:27.719Z,24.96673584
2022-08-05T04:49:24.582Z,24.96673584
2022-08-05T04:50:37.270Z,25.01708984
2022-08-05T04:51:24.783Z,25.07751465
2022-08-05T04:52:27.601Z,25.06744385
2022-08-05T04:53:26.827Z,25.06744385
2022-08-05T04:54:27.524Z,25.10772705
2022-08-05T04:56:32.931Z,25.11779785
2022-08-05T04:56:59.974Z,25.06744385
2022-08-05T04:58:01.714Z,25.04730225
2022-08-05T04:59:21.680Z,25.06744385
2022-08-05T05:00:03.076Z,25.08758545
2022-08-05T05:01:03.846Z,25.08758545
2022-08-05T05:02:07.773Z,25.08758545
2022-08-05T05:03:05.529Z,25.11779785
2022-08-05T05:04:06.189Z,25.11779785
2022-08-05T05:05:16.929Z,25.15808105
2022-08-05T05:06:39.126Z,25.18829346
2022-08-05T05:07:09.342Z,25.23864746
2022-08-05T05:08:14.378Z,25.26885986
2022-08-05T05:09:14.154Z,25.33935547
2022-08-05T05:10:12.351Z,25.35949707
2022-08-05T05:11:15.204Z,25.41992188
2022-08-05T05:12:13.866Z,25.46020508
2022-08-05T05:13:14.610Z,25.51055908
2022-08-05T05:14:15.258Z,25.54077148
2022-08-05T05:15:17.330Z,25.60119629
2022-08-05T05:16:16.620Z,25.59112549
2022-08-05T05:17:23.372Z,25.64147949
2022-08-05T05:18:28.221Z,25.66162109
2022-08-05T05:19:26.507Z,25.6918335
2022-08-05T05:20:21.131Z,25.6918335
2022-08-05T05:21:21.955Z,25.7220459
2022-08-05T05:22:26.103Z,25.7522583
2022-08-05T05:23:23.631Z,25.7623291
2022-08-05T05:24:56.415Z,25.7824707
2022-08-05T05:25:40.365Z,25.81268311
2022-08-05T05:26:28.165Z,25.83282471
2022-08-05T05:27:44.348Z,25.86303711
2022-08-05T05:28:58.792Z,25.86303711
2022-08-05T05:30:04.197Z,25.86303711
2022-08-05T05:31:00.199Z,25.90332031
2022-08-05T05:32:00.898Z,25.93353271
2022-08-05T05:33:09.148Z,25.96374512
2022-08-05T05:34:03.215Z,25.96374512
2022-08-05T05:35:04.022Z,25.98388672
2022-08-05T05:36:04.716Z,26.01409912
2022-08-05T05:37:05.486Z,26.03424072
2022-08-05T05:38:09.161Z,26.03424072
2022-08-05T05:39:09.466Z,26.03424072
2022-08-05T05:40:08.712Z,26.04431152
2022-08-05T05:41:09.378Z,26.04431152
2022-08-05T05:42:10.709Z,26.01409912
2022-08-05T05:43:11.609Z,26.06445313
2022-08-05T05:44:35.860Z,26.08459473
2022-08-05T05:45:14.173Z,26.11480713
2022-08-05T05:46:17.258Z,26.09466553
2022-08-05T05:47:21.989Z,26.08459473
2022-08-05T05:48:16.323Z,26.11480713
2022-08-05T05:49:22.965Z,26.12487793
2022-08-05T05:50:19.741Z,26.12487793
2022-08-05T05:51:18.471Z,26.13494873
2022-08-05T05:52:28.703Z,26.11480713
2022-08-05T05:53:21.007Z,26.13494873
2022-08-05T05:54:20.765Z,26.13494873
2022-08-05T05:55:21.541Z,26.16516113
2022-08-05T05:56:26.226Z,26.18530273
2022-08-05T05:57:23.117Z,26.22558594
2022-08-05T05:58:30.308Z,26.27593994
2022-08-05T05:59:25.398Z,26.31622314
2022-08-05T06:00:27.823Z,26.33636475
2022-08-05T06:01:58.237Z,26.38671875
2022-08-05T06:02:58.930Z,26.41693115
2022-08-05T06:04:02.077Z,26.46728516
2022-08-05T06:05:01.381Z,26.50756836
2022-08-05T06:06:01.262Z,26.53778076
2022-08-05T06:07:02.742Z,26.56799316
2022-08-05T06:08:04.235Z,26.59820557
2022-08-05T06:09:05.038Z,26.60827637
2022-08-05T06:10:09.732Z,26.63848877
2022-08-05T06:11:06.629Z,26.64855957
2022-08-05T06:12:09.638Z,26.65863037
2022-08-05T06:13:08.060Z,26.68884277
2022-08-05T06:14:08.885Z,26.72912598
2022-08-05T06:15:12.400Z,26.74926758
2022-08-05T06:16:29.920Z,26.75933838
2022-08-05T06:17:24.254Z,26.78955078
2022-08-05T06:18:13.228Z,26.80969238
2022-08-05T06:19:14.026Z,26.83990479
2022-08-05T06:20:21.398Z,26.83990479
2022-08-05T06:21:16.663Z,26.83990479
2022-08-05T06:22:16.248Z,26.82983398
2022-08-05T06:23:16.917Z,26.83990479
2022-08-05T06:24:18.601Z,26.82983398
2022-08-05T06:25:25.136Z,26.83990479
2022-08-05T06:26:21.420Z,26.86004639
2022-08-05T06:28:12.749Z,26.86004639
2022-08-05T06:28:22.407Z,26.86004639
2022-08-05T06:29:25.377Z,26.86004639
2022-08-05T06:30:23.745Z,26.86004639
2022-08-05T06:31:30.530Z,26.86004639
2022-08-05T06:32:29.220Z,26.86004639
2022-08-05T06:33:33.362Z,26.86004639
2022-08-05T06:34:58.800Z,26.83990479
2022-08-05T06:36:05.677Z,26.82983398
2022-08-05T06:37:00.326Z,26.78955078
2022-08-05T06:38:09.999Z,26.80969238
2022-08-05T06:39:02.423Z,26.78955078
2022-08-05T06:40:03.727Z,26.80969238
2022-08-05T06:41:04.510Z,26.83990479
2022-08-05T06:42:05.212Z,26.87011719
2022-08-05T06:43:06.052Z,26.88018799
2022-08-05T06:44:06.549Z,26.91040039
2022-08-05T06:45:08.705Z,26.94061279
2022-08-05T06:46:08.085Z,26.94061279
2022-08-05T06:47:10.337Z,26.96075439
2022-08-05T06:48:36.146Z,26.94061279
2022-08-05T06:49:12.137Z,26.93054199
2022-08-05T06:50:12.104Z,26.91040039
2022-08-05T06:51:26.587Z,26.91040039
2022-08-05T06:52:36.655Z,26.91040039
2022-08-05T06:53:22.679Z,26.90032959
2022-08-05T06:54:18.123Z,26.90032959
2022-08-05T06:55:15.897Z,26.90032959
2022-08-05T06:56:26.432Z,26.90032959
2022-08-05T06:58:02.610Z,26.91040039
2022-08-05T06:58:20.326Z,26.90032959
2022-08-05T06:59:19.354Z,26.91040039
2022-08-05T07:00:24.551Z,26.93054199
2022-08-05T07:01:21.648Z,26.91040039
2022-08-05T07:02:22.907Z,26.91040039
2022-08-05T07:03:28.040Z,26.91040039
2022-08-05T07:04:23.743Z,26.93054199
2022-08-05T07:05:37.494Z,26.93054199
2022-08-05T07:06:25.364Z,26.93054199
2022-08-05T07:07:57.596Z,26.91040039
2022-08-05T07:08:59.231Z,26.90032959
2022-08-05T07:09:59.745Z,26.93054199
2022-08-05T07:11:02.020Z,26.94061279
2022-08-05T07:12:01.974Z,26.94061279
2022-08-05T07:13:02.761Z,26.96075439
2022-08-05T07:14:03.476Z,26.9708252
2022-08-05T07:15:04.134Z,27.0111084
2022-08-05T07:16:04.982Z,27.0111084
2022-08-05T07:17:58.677Z,27.0211792
2022-08-05T07:18:09.589Z,27.0111084
2022-08-05T07:19:08.567Z,27.03125
2022-08-05T07:20:33.780Z,27.0513916
2022-08-05T07:21:10.087Z,27.03125
2022-08-05T07:22:10.958Z,27.03125
2022-08-05T07:23:13.112Z,27.0211792
2022-08-05T07:24:12.507Z,27.0513916
2022-08-05T07:25:54.122Z,27.0513916
2022-08-05T07:26:15.018Z,27.081604
2022-08-05T07:27:14.898Z,27.0614624
2022-08-05T07:28:17.264Z,27.0513916
2022-08-05T07:29:17.389Z,27.03125
2022-08-05T07:30:27.639Z,27.0211792
2022-08-05T07:31:19.904Z,27.0513916
2022-08-05T07:32:24.265Z,27.0513916
2022-08-05T07:33:36.541Z,27.0614624
2022-08-05T07:34:28.372Z,27.081604
2022-08-05T07:36:01.695Z,27.081604
2022-08-05T07:36:24.149Z,27.11181641
2022-08-05T07:37:28.885Z,27.12188721
2022-08-05T07:38:33.288Z,27.15209961
2022-08-05T07:40:04.716Z,27.16217041
2022-08-05T07:41:01.461Z,27.18231201
2022-08-05T07:42:08.542Z,27.18231201
2022-08-05T07:42:59.806Z,27.21252441
2022-08-05T07:44:00.588Z,27.23266602
2022-08-05T07:45:02.248Z,27.25280762
2022-08-05T07:46:02.871Z,27.28302002
2022-08-05T07:47:07.823Z,27.30316162
2022-08-05T07:48:05.140Z,27.33337402
2022-08-05T07:49:07.938Z,27.33337402
2022-08-05T07:50:07.434Z,27.35351563
2022-08-05T07:51:23.018Z,27.38372803
2022-08-05T07:52:08.864Z,27.39379883
2022-08-05T07:53:09.685Z,27.42401123
2022-08-05T07:54:11.496Z,27.46429443
2022-08-05T07:55:15.766Z,27.49450684
2022-08-05T07:57:00.202Z,27.50457764
2022-08-05T07:57:22.812Z,27.55493164
2022-08-05T07:58:54.506Z,27.60528564
2022-08-05T07:59:15.657Z,27.61535645
2022-08-05T08:00:16.331Z,27.67578125
2022-08-05T08:01:17.592Z,27.68585205
2022-08-05T08:02:18.407Z,27.73620605
2022-08-05T08:03:19.077Z,27.75634766
2022-08-05T08:04:34.330Z,27.79663086
2022-08-05T08:05:20.704Z,27.79663086
2022-08-05T08:06:22.269Z,27.79663086
2022-08-05T08:07:23.381Z,27.80670166
2022-08-05T08:08:23.744Z,27.83691406
2022-08-05T08:09:25.148Z,27.83691406
2022-08-05T08:10:26.347Z,27.87719727
2022-08-05T08:12:01.832Z,27.90740967
2022-08-05T08:12:58.874Z,27.92755127
2022-08-05T08:14:01.195Z,27.94769287
2022-08-05T08:15:02.153Z,27.97790527
2022-08-05T08:16:34.856Z,27.98797607
2022-08-05T08:17:01.719Z,27.98797607
2022-08-05T08:18:04.251Z,28.01818848
2022-08-05T08:19:03.752Z,28.00811768
2022-08-05T08:20:22.670Z,28.01818848
2022-08-05T08:21:05.185Z,28.01818848
2022-08-05T08:22:05.884Z,28.01818848
2022-08-05T08:23:06.703Z,28.01818848
2022-08-05T08:24:13.571Z,28.01818848
2022-08-05T08:25:16.062Z,28.04840088
2022-08-05T08:26:10.247Z,28.02825928
2022-08-05T08:27:10.851Z,28.02825928
2022-08-05T08:28:18.969Z,28.04840088
2022-08-05T08:29:45.299Z,28.02825928
2022-08-05T08:30:27.603Z,28.04840088
2022-08-05T08:31:17.441Z,28.04840088
2022-08-05T08:32:15.521Z,28.04840088
2022-08-05T08:33:17.101Z,28.02825928
2022-08-05T08:34:18.759Z,28.01818848
2022-08-05T08:35:18.617Z,28.00811768
2022-08-05T08:36:39.187Z,27.98797607
2022-08-05T08:37:19.969Z,27.95776367
2022-08-05T08:38:36.166Z,27.95776367
2022-08-05T08:39:22.458Z,27.95776367
2022-08-05T08:40:23.751Z,27.94769287
2022-08-05T08:41:26.180Z,27.95776367
2022-08-05T08:42:32.341Z,28.00811768
2022-08-05T08:45:18.027Z,28.02825928
2022-08-05T08:45:24.775Z,28.01818848
2022-08-05T08:45:58.227Z,28.04840088
2022-08-05T08:46:58.908Z,28.02825928
2022-08-05T08:48:06.964Z,28.04840088
2022-08-05T08:50:07.776Z,28.04840088
2022-08-05T08:50:12.950Z,28.04840088
2022-08-05T08:51:54.649Z,28.05847168
2022-08-05T08:52:13.079Z,28.02825928
2022-08-05T08:53:08.113Z,28.04840088
2022-08-05T08:54:06.279Z,28.04840088
2022-08-05T08:55:13.157Z,28.02825928
2022-08-05T08:56:07.849Z,28.05847168
2022-08-05T08:57:11.362Z,28.04840088
2022-08-05T08:58:10.101Z,28.04840088
2022-08-05T08:59:14.980Z,28.02825928
2022-08-05T09:00:12.513Z,28.04840088
2022-08-05T09:01:16.867Z,28.05847168
2022-08-05T09:02:14.745Z,28.05847168
2022-08-05T09:03:16.253Z,28.07861328
2022-08-05T09:04:16.140Z,28.07861328
2022-08-05T09:05:18.321Z,28.10882568
2022-08-05T09:06:21.229Z,28.12896729
2022-08-05T09:07:28.209Z,28.14910889
2022-08-05T09:08:19.597Z,28.14910889
2022-08-05T09:09:20.346Z,28.17932129
2022-08-05T09:10:21.759Z,28.17932129
2022-08-05T09:11:51.759Z,28.19946289
2022-08-05T09:12:27.785Z,28.22967529
2022-08-05T09:13:23.926Z,28.23974609
2022-08-05T09:14:57.954Z,28.24981689
2022-08-05T09:15:56.228Z,28.24981689
2022-08-05T09:16:57.010Z,28.2699585
2022-08-05T09:17:57.813Z,28.2800293
2022-08-05T09:18:59.495Z,28.3001709
2022-08-05T09:20:02.461Z,28.3203125
2022-08-05T09:21:00.875Z,28.3303833
2022-08-05T09:22:22.143Z,28.3605957
2022-08-05T09:23:05.259Z,28.3605957
2022-08-05T09:24:03.001Z,28.3807373
2022-08-05T09:25:14.027Z,28.39080811
2022-08-05T09:26:06.182Z,28.42102051
2022-08-05T09:27:04.929Z,28.42102051
2022-08-05T09:28:06.447Z,28.42102051
2022-08-05T09:29:06.175Z,28.43109131
2022-08-05T09:30:07.571Z,28.45123291
2022-08-05T09:31:22.173Z,28.45123291
2022-08-05T09:32:40.965Z,28.48144531
2022-08-05T09:33:10.623Z,28.51165771
2022-08-05T09:34:11.499Z,28.52172852
2022-08-05T09:35:12.273Z,28.54187012
2022-08-05T09:36:16.697Z,28.55194092
2022-08-05T09:37:15.098Z,28.57208252
2022-08-05T09:38:18.272Z,28.57208252
2022-08-05T09:39:16.756Z,28.60229492
2022-08-05T09:40:17.273Z,28.60229492
2022-08-05T09:41:17.971Z,28.62243652
2022-08-05T09:42:24.166Z,28.64257813
2022-08-05T09:43:19.973Z,28.65264893
2022-08-05T09:44:20.576Z,28.69293213
2022-08-05T09:46:06.908Z,28.72314453
2022-08-05T09:46:22.063Z,28.73321533
2022-08-05T09:47:22.822Z,28.77349854
2022-08-05T09:48:23.533Z,28.77349854
2022-08-05T09:49:24.144Z,28.80371094
2022-08-05T09:50:55.865Z,28.83392334
2022-08-05T09:51:56.572Z,28.87420654
2022-08-05T09:52:57.239Z,28.88427734
2022-08-05T09:53:59.110Z,28.91448975
2022-08-05T09:54:59.333Z,28.95477295
2022-08-05T09:56:04.556Z,28.97491455
2022-08-05T09:57:01.722Z,28.99505615
2022-08-05T09:58:01.631Z,29.02526855
2022-08-05T09:59:04.071Z,29.06555176
2022-08-05T10:00:07.562Z,29.10583496
2022-08-05T10:01:13.506Z,29.13604736
2022-08-05T10:02:05.090Z,29.14611816
2022-08-05T10:03:06.785Z,29.17633057
2022-08-05T10:04:10.243Z,29.20654297
2022-08-05T10:05:08.103Z,29.24682617
2022-08-05T10:06:15.524Z,29.26696777
2022-08-05T10:07:20.082Z,29.29718018
2022-08-05T10:08:37.653Z,29.31732178
2022-08-05T10:09:27.489Z,29.34753418
2022-08-05T10:10:14.776Z,29.38781738
2022-08-05T10:11:13.308Z,29.43817139
2022-08-05T10:12:31.020Z,29.47845459
2022-08-05T10:13:15.662Z,29.50866699
2022-08-05T10:14:16.463Z,29.51873779
2022-08-05T10:15:20.620Z,29.5690918
2022-08-05T10:16:17.997Z,29.6295166
2022-08-05T10:17:37.641Z,29.659729
2022-08-05T10:18:20.457Z,29.6697998
2022-08-05T10:19:23.836Z,29.71008301
2022-08-05T10:20:22.625Z,29.76043701
2022-08-05T10:21:23.385Z,29.81079102
2022-08-05T10:22:29.751Z,29.85107422
2022-08-05T10:24:00.378Z,29.89135742
2022-08-05T10:24:56.785Z,29.92156982
2022-08-05T10:25:57.522Z,29.97192383
2022-08-05T10:27:00.550Z,30.00213623
2022-08-05T10:28:13.599Z,30.01220703
2022-08-05T10:28:59.828Z,30.04241943
2022-08-05T10:31:20.141Z,30.07263184
2022-08-05T10:32:54.654Z,30.13305664
2022-08-05T10:33:00.859Z,30.08270264
2022-08-05T10:33:04.940Z,30.13305664
2022-08-05T10:34:06.999Z,30.15319824
2022-08-05T10:35:05.603Z,30.19348145
2022-08-05T10:36:06.235Z,30.21362305
2022-08-05T10:37:07.153Z,30.23376465
2022-08-05T10:38:08.400Z,30.25390625
2022-08-05T10:39:11.665Z,30.28411865
2022-08-05T10:40:17.565Z,30.26397705
2022-08-05T10:41:12.371Z,30.30426025
2022-08-05T10:42:11.792Z,30.34454346
2022-08-05T10:43:12.638Z,30.37475586
2022-08-05T10:44:13.268Z,30.38482666
2022-08-05T10:45:23.299Z,30.40496826
2022-08-05T10:46:14.726Z,30.41503906
2022-08-05T10:47:26.789Z,30.45532227
2022-08-05T10:48:31.761Z,30.45532227
2022-08-05T10:49:17.151Z,30.47546387
2022-08-05T10:50:33.237Z,30.50567627
2022-08-05T10:51:22.375Z,30.53588867
2022-08-05T10:52:20.408Z,30.56610107
2022-08-05T10:53:21.142Z,30.59631348
2022-08-05T10:54:28.331Z,30.59631348
2022-08-05T10:55:22.466Z,30.62652588
2022-08-05T10:56:25.903Z,30.65673828
2022-08-05T10:57:24.346Z,30.71716309
2022-08-05T10:58:55.453Z,30.71716309
2022-08-05T11:00:02.696Z,30.71716309
2022-08-05T11:01:03.122Z,30.69702148
2022-08-05T11:02:05.158Z,30.69702148
2022-08-05T11:02:59.192Z,30.67687988
2022-08-05T11:04:00.647Z,30.69702148
2022-08-05T11:05:01.239Z,30.71716309
2022-08-05T11:06:03.862Z,30.72723389
2022-08-05T11:07:02.689Z,30.72723389
2022-08-05T11:08:17.091Z,30.71716309